createdAt,value
2023-05-21T00:00:17.662Z,46.92
2023-05-21T00:05:21.709Z,46.74
2023-05-21T00:10:26.613Z,46.68
2023-05-21T00:15:29.605Z,47.06
2023-05-21T00:20:33.165Z,47.48
2023-05-21T00:25:37.402Z,47.68
2023-05-21T00:30:41.058Z,47.84
2023-05-21T00:35:43.960Z,47.88
2023-05-21T00:40:48.173Z,47.93
2023-05-21T00:45:53.742Z,48.10
2023-05-21T00:50:56.604Z,48.09
2023-05-21T00:56:00.813Z,48.21
2023-05-21T01:01:06.730Z,48.20
2023-05-21T01:06:10.305Z,48.36
2023-05-21T01:11:15.056Z,48.45
2023-05-21T01:16:18.151Z,48.49
2023-05-21T01:21:21.648Z,48.60
2023-05-21T01:26:26.243Z,48.82
2023-05-21T01:31:30.355Z,49.00
2023-05-21T01:36:35.982Z,49.29
2023-05-21T01:41:41.856Z,49.59
2023-05-21T01:46:44.736Z,49.73
2023-05-21T01:51:47.601Z,49.72
2023-05-21T01:56:51.724Z,49.63
2023-05-21T02:01:54.676Z,49.67
2023-05-21T02:06:57.569Z,49.86
2023-05-21T02:12:02.216Z,50.07
2023-05-21T02:17:05.176Z,49.98
2023-05-21T02:22:08.180Z,50.00
2023-05-21T02:27:13.621Z,50.33
2023-05-21T02:32:17.026Z,50.22
2023-05-21T02:37:20.149Z,50.34
2023-05-21T02:42:24.447Z,50.57
2023-05-21T02:47:27.587Z,50.67
2023-05-21T02:52:30.473Z,50.49
2023-05-21T02:57:34.700Z,50.64
2023-05-21T03:02:37.651Z,50.76
2023-05-21T03:07:41.837Z,50.69
2023-05-21T03:12:46.033Z,50.78
2023-05-21T03:17:48.943Z,50.91
2023-05-21T03:22:52.767Z,51.09
2023-05-21T03:27:57.105Z,51.24
2023-05-21T03:33:21.786Z,51.10
2023-05-21T03:38:24.832Z,51.25
2023-05-21T03:43:29.736Z,51.31
2023-05-21T03:48:32.655Z,51.26
2023-05-21T03:53:37.032Z,51.49
2023-05-21T03:58:41.541Z,51.50
2023-05-21T04:03:44.861Z,51.62
2023-05-21T04:08:48.084Z,51.62
2023-05-21T04:13:52.819Z,51.47
2023-05-21T04:18:56.421Z,51.57
2023-05-21T04:24:02.154Z,51.68
2023-05-21T04:29:42.486Z,51.59
2023-05-21T04:34:45.627Z,51.41
2023-05-21T04:39:48.469Z,51.68
2023-05-21T04:44:55.541Z,51.66
2023-05-21T04:49:59.338Z,51.51
2023-05-21T04:55:03.810Z,51.52
2023-05-21T05:00:10.348Z,51.58
2023-05-21T05:05:17.531Z,51.61
2023-05-21T05:10:20.409Z,51.43
2023-05-21T05:15:25.142Z,51.39
2023-05-21T05:20:28.236Z,51.38
2023-05-21T05:25:31.391Z,51.35
2023-05-21T05:30:36.356Z,51.45
2023-05-21T05:35:50.969Z,51.50
2023-05-21T05:40:54.025Z,51.33
2023-05-21T05:46:00.118Z,51.42
2023-05-21T05:51:03.128Z,51.26
2023-05-21T05:56:08.321Z,51.28
2023-05-21T06:01:14.376Z,51.27
2023-05-21T06:06:18.012Z,51.19
2023-05-21T06:11:21.584Z,51.33
2023-05-21T06:16:25.847Z,51.24
2023-05-21T06:21:29.243Z,51.09
2023-05-21T06:26:32.376Z,51.03
2023-05-21T06:31:37.516Z,51.00
2023-05-21T06:36:40.526Z,50.98
2023-05-21T06:41:43.466Z,51.02
2023-05-21T06:47:06.723Z,50.80
2023-05-21T06:52:09.633Z,50.62
2023-05-21T06:57:12.680Z,50.77
2023-05-21T07:02:17.313Z,50.75
2023-05-21T07:07:20.277Z,50.51
2023-05-21T07:12:23.639Z,49.35
2023-05-21T07:17:28.242Z,49.31
2023-05-21T07:22:31.428Z,50.27
2023-05-21T07:27:34.343Z,50.11
2023-05-21T07:32:38.814Z,50.01
2023-05-21T07:37:41.893Z,49.97
2023-05-21T07:42:45.575Z,50.80
2023-05-21T07:47:51.903Z,51.77
2023-05-21T07:52:55.394Z,52.77
2023-05-21T07:57:58.549Z,53.67
2023-05-21T08:03:07.250Z,53.36
2023-05-21T08:08:10.368Z,52.99
2023-05-21T08:13:13.436Z,53.01
2023-05-21T08:18:18.446Z,53.17
2023-05-21T08:23:22.751Z,52.30
2023-05-21T08:28:29.849Z,52.58
2023-05-21T08:33:37.064Z,51.95
2023-05-21T08:38:40.875Z,52.17
2023-05-21T08:43:57.573Z,52.45
2023-05-21T08:49:04.684Z,51.89
2023-05-21T08:54:09.092Z,52.94
2023-05-21T08:59:11.966Z,52.63
2023-05-21T09:04:21.289Z,52.52
2023-05-21T09:09:31.593Z,52.65
2023-05-21T09:14:34.490Z,52.21
2023-05-21T09:20:12.523Z,52.76
2023-05-21T09:25:22.328Z,52.54
2023-05-21T09:30:27.817Z,53.54
2023-05-21T09:35:36.161Z,56.73
2023-05-21T09:40:40.499Z,55.03
2023-05-21T09:45:51.783Z,51.82
2023-05-21T09:50:56.135Z,53.17
2023-05-21T09:55:59.016Z,52.94
2023-05-21T10:01:01.843Z,51.88
2023-05-21T10:06:06.493Z,52.04
2023-05-21T10:11:09.496Z,51.98
2023-05-21T10:16:12.758Z,51.23
2023-05-21T10:21:17.088Z,51.49
2023-05-21T10:26:21.494Z,51.54
2023-05-21T10:31:24.540Z,52.24
2023-05-21T10:36:29.590Z,50.64
2023-05-21T10:41:35.008Z,50.33
2023-05-21T10:47:08.608Z,50.06
2023-05-21T10:52:19.951Z,50.48
2023-05-21T10:57:44.448Z,50.41
2023-05-21T11:02:47.462Z,50.60
2023-05-21T11:07:56.368Z,50.42
2023-05-21T11:13:14.874Z,50.38
2023-05-21T11:18:18.222Z,50.35
2023-05-21T11:23:23.209Z,49.64
2023-05-21T11:28:35.410Z,49.70
2023-05-21T11:33:38.288Z,49.85
2023-05-21T11:38:42.483Z,49.57
2023-05-21T11:43:45.364Z,49.22
2023-05-21T11:48:48.166Z,48.97
2023-05-21T11:53:52.367Z,48.57
2023-05-21T11:58:55.872Z,49.00
2023-05-21T12:03:58.823Z,48.61
2023-05-21T12:09:04.609Z,48.72
2023-05-21T12:14:09.216Z,48.71
2023-05-21T12:19:12.134Z,47.96
2023-05-21T12:24:16.496Z,46.69
2023-05-21T12:29:20.347Z,46.91
2023-05-21T12:34:39.508Z,47.13
2023-05-21T12:39:44.693Z,47.07
2023-05-21T12:44:51.585Z,47.04
2023-05-21T12:49:56.406Z,46.77
2023-05-21T12:55:00.896Z,46.83
2023-05-21T13:00:06.523Z,47.55
2023-05-21T13:05:10.251Z,47.14
2023-05-21T13:10:14.607Z,46.47
2023-05-21T13:15:17.547Z,47.01
2023-05-21T13:20:21.856Z,47.03
2023-05-21T13:25:28.831Z,47.36
2023-05-21T13:30:33.319Z,47.24
2023-05-21T13:35:36.378Z,47.83
2023-05-21T13:40:41.434Z,47.78
2023-05-21T13:45:52.571Z,47.24
2023-05-21T13:50:55.436Z,46.99
2023-05-21T13:55:59.719Z,46.88
2023-05-21T14:01:02.920Z,46.66
2023-05-21T14:06:08.299Z,46.39
2023-05-21T14:11:12.439Z,46.44
2023-05-21T14:16:15.399Z,46.56
2023-05-21T14:21:18.466Z,46.19
2023-05-21T14:26:22.607Z,46.43
2023-05-21T14:31:25.797Z,46.49
2023-05-21T14:36:28.906Z,46.85
2023-05-21T14:41:33.170Z,46.66
2023-05-21T14:46:36.837Z,46.71
2023-05-21T14:51:40.666Z,46.81
2023-05-21T14:56:45.008Z,46.69
2023-05-21T15:01:49.455Z,46.80
2023-05-21T15:06:52.455Z,46.74
2023-05-21T15:11:56.647Z,46.61
2023-05-21T15:16:59.492Z,46.50
2023-05-21T15:22:02.728Z,45.99
2023-05-21T15:27:07.667Z,45.73
2023-05-21T15:32:10.743Z,45.74
2023-05-21T15:37:15.344Z,45.51
2023-05-21T15:42:26.267Z,44.72
2023-05-21T15:47:29.286Z,44.81
2023-05-21T15:52:32.773Z,43.90
2023-05-21T15:57:37.070Z,42.58
2023-05-21T16:02:40.923Z,42.26
2023-05-21T16:07:44.468Z,42.04
2023-05-21T16:12:48.871Z,41.78
2023-05-21T16:17:51.865Z,41.78
2023-05-21T16:22:54.779Z,43.38
2023-05-21T16:27:59.000Z,44.57
2023-05-21T16:33:01.901Z,45.00
2023-05-21T16:38:04.764Z,45.54
2023-05-21T16:43:08.967Z,45.28
2023-05-21T16:48:12.798Z,45.73
2023-05-21T16:53:16.257Z,45.59
2023-05-21T16:58:20.432Z,46.00
2023-05-21T17:03:23.498Z,46.10
2023-05-21T17:08:26.304Z,45.99
2023-05-21T17:13:30.782Z,46.17
2023-05-21T17:18:33.739Z,46.59
2023-05-21T17:23:36.577Z,46.73
2023-05-21T17:28:40.768Z,46.80
2023-05-21T17:33:43.657Z,47.01
2023-05-21T17:38:46.903Z,47.04
2023-05-21T17:43:51.333Z,47.25
2023-05-21T17:48:54.111Z,47.38
2023-05-21T17:53:57.494Z,47.49
2023-05-21T17:59:01.847Z,47.55
2023-05-21T18:04:05.138Z,47.13
2023-05-21T18:09:10.431Z,47.36
2023-05-21T18:14:14.780Z,47.33
2023-05-21T18:19:17.716Z,47.78
2023-05-21T18:24:20.688Z,47.14
2023-05-21T18:29:24.972Z,47.39
2023-05-21T18:34:27.787Z,47.26
2023-05-21T18:39:30.710Z,47.25
2023-05-21T18:44:35.017Z,47.34
2023-05-21T18:49:37.980Z,47.02
2023-05-21T18:54:40.923Z,46.99
2023-05-21T18:59:45.314Z,47.22
2023-05-21T19:04:48.744Z,47.35
2023-05-21T19:09:52.732Z,46.94
2023-05-21T19:14:56.984Z,46.90
2023-05-21T19:20:00.087Z,47.03
2023-05-21T19:25:03.013Z,47.06
2023-05-21T19:30:09.635Z,46.79
2023-05-21T19:35:12.440Z,46.63
2023-05-21T19:40:17.546Z,46.37
2023-05-21T19:45:22.276Z,46.51
2023-05-21T19:50:25.219Z,46.32
2023-05-21T19:55:28.437Z,46.54
2023-05-21T20:00:33.278Z,46.42
2023-05-21T20:05:36.163Z,46.42
2023-05-21T20:10:40.360Z,46.49
2023-05-21T20:15:44.807Z,46.64
2023-05-21T20:20:47.669Z,46.80
2023-05-21T20:25:50.992Z,46.97
2023-05-21T20:30:57.624Z,47.19
2023-05-21T20:36:00.670Z,47.00
2023-05-21T20:41:03.704Z,46.93
2023-05-21T20:46:08.051Z,47.09
2023-05-21T20:51:11.197Z,47.21
2023-05-21T20:56:16.998Z,47.24
2023-05-21T21:01:24.207Z,47.29
2023-05-21T21:06:30.023Z,47.11
2023-05-21T21:11:33.066Z,47.22
2023-05-21T21:16:37.268Z,47.47
2023-05-21T21:21:40.406Z,47.29
2023-05-21T21:26:43.623Z,47.34
2023-05-21T21:31:47.987Z,47.20
2023-05-21T21:36:51.176Z,47.22
2023-05-21T21:41:54.045Z,47.13
2023-05-21T21:46:58.255Z,47.41
2023-05-21T21:52:01.398Z,47.51
2023-05-21T21:57:04.656Z,47.47
2023-05-21T22:02:08.855Z,47.40
2023-05-21T22:07:17.781Z,47.65
2023-05-21T22:12:20.929Z,48.08
2023-05-21T22:17:25.384Z,47.70
2023-05-21T22:22:28.229Z,47.69
2023-05-21T22:27:31.032Z,47.98
2023-05-21T22:32:35.216Z,47.81
2023-05-21T22:37:38.250Z,47.98
2023-05-21T22:42:41.209Z,48.01
2023-05-21T22:47:45.393Z,48.12
2023-05-21T22:52:48.177Z,48.40
2023-05-21T22:57:50.928Z,48.49
2023-05-21T23:02:55.213Z,48.68
2023-05-21T23:07:58.067Z,48.88
2023-05-21T23:13:00.910Z,48.75
2023-05-21T23:18:05.098Z,48.95
2023-05-21T23:23:08.014Z,49.06
2023-05-21T23:28:10.817Z,49.10
2023-05-21T23:33:15.037Z,49.24
2023-05-21T23:38:17.901Z,49.41
2023-05-21T23:43:20.751Z,49.41
2023-05-21T23:48:25.523Z,49.73
2023-05-21T23:53:28.314Z,49.74
2023-05-21T23:58:31.114Z,50.03
